Time;durP1;ratioP1;P1;durP2;ratioP2;P2;SDS_P1;SDS_P2;PMS_P1;PMS_P2;Temp;Humidity;BMP_temperature;BMP_pressure;BME280_temperature;BME280_humidity;BME280_pressure;Samples;Min_cycle;Max_cycle;Signal;HPM_P1;HPM_P2
2022/03/14 00:00:26;;;;;;;;;;;;;;;10.69;61.33;101568.91;4898021;29;20276;-87
2022/03/14 00:02:51;;;;;;;;;;;;;;;10.64;62.04;101568.06;4914817;29;20017;-86
2022/03/14 00:05:17;;;;;;;;;;;;;;;10.62;62.06;101577.78;4897849;29;20388;-87
2022/03/14 00:07:46;;;;;;;;;;;;;;;10.60;62.13;101580.44;4912892;29;19922;-86
2022/03/14 00:10:13;;;;;;;;;;;;;;;10.61;61.38;101581.31;4897866;29;19919;-86
2022/03/14 00:12:40;;;;;;;;;;;;;;;10.60;61.65;101587.53;4915741;29;19923;-87
2022/03/14 00:15:11;;;;;;;;;;;;;;;10.61;62.41;101587.50;4884939;29;19922;-85
2022/03/14 00:17:38;;;;;;;;;;;;;;;10.55;61.50;101601.66;4886081;29;20283;-87
2022/03/14 00:20:07;;;;;;;;;;;;;;;10.57;61.78;101601.66;4916222;29;20116;-86
2022/03/14 00:22:32;;;;;;;;;;;;;;;10.59;62.16;101599.03;4900568;29;19970;-86
2022/03/14 00:24:58;;;;;;;;;;;;;;;10.54;61.68;101602.56;4916367;29;19918;-86
2022/03/14 00:27:23;;;;;;;;;;;;;;;10.61;60.99;101603.41;4932213;29;19915;-87
2022/03/14 00:29:48;;;;;;;;;;;;;;;10.50;61.17;101608.78;4916424;29;19919;-86
2022/03/14 00:32:14;;;;;;;;;;;;;;;10.48;61.80;101607.03;4900356;29;19969;-86
2022/03/14 00:34:41;;;;;;;;;;;;;;;10.50;60.54;101611.44;4900700;29;19919;-87
2022/03/14 00:37:06;;;;;;;;;;;;;;;10.44;61.94;101614.16;4932202;29;19919;-86
2022/03/14 00:39:31;;;;;;;;;;;;;;;10.45;61.20;101618.53;4917098;29;20290;-87
2022/03/14 00:41:57;;;;;;;;;;;;;;;10.43;61.51;101617.69;4916687;29;19926;-87
2022/03/14 00:44:23;;;;;;;;;;;;;;;10.44;61.98;101624.75;4895892;29;20308;-87
2022/03/14 00:46:48;;;;;;;;;;;;;;;10.45;61.92;101633.56;4913577;29;20009;-82
2022/03/14 00:49:14;;;;;;;;;;;;;;;10.44;62.23;101639.75;4881558;29;20231;-82
2022/03/14 00:51:40;;;;;;;;;;;;;;;10.43;62.05;101638.84;4897167;29;19943;-82
2022/03/14 00:54:06;;;;;;;;;;;;;;;10.44;62.00;101634.47;4897406;29;19967;-82
2022/03/14 00:56:33;;;;;;;;;;;;;;;10.43;61.87;101641.50;4912914;29;19926;-82
2022/03/14 00:59:01;;;;;;;;;;;;;;;10.43;62.55;101643.28;4897487;29;20286;-82
2022/03/14 01:01:27;;;;;;;;;;;;;;;10.41;62.27;101645.06;4897424;29;20018;-82
2022/03/14 01:03:53;;;;;;;;;;;;;;;10.38;62.75;101647.75;4912907;29;19919;-82
2022/03/14 01:06:18;;;;;;;;;;;;;;;10.45;62.70;101652.09;4912762;29;19911;-82
2022/03/14 01:08:44;;;;;;;;;;;;;;;10.39;63.56;101655.69;4897230;29;19951;-82
2022/03/14 01:11:09;;;;;;;;;;;;;;;10.37;62.79;101657.47;4912821;29;20371;-82
2022/03/14 01:13:35;;;;;;;;;;;;;;;10.34;64.19;101662.78;4884261;29;19919;-82
2022/03/14 01:16:00;;;;;;;;;;;;;;;10.30;64.88;101663.69;4909703;29;20358;-82
2022/03/14 01:18:25;;;;;;;;;;;;;;;10.36;64.50;101663.66;4885130;29;19926;-82
2022/03/14 01:20:51;;;;;;;;;;;;;;;10.26;64.34;101660.16;4931699;29;20031;-82
2022/03/14 01:23:17;;;;;;;;;;;;;;;10.22;66.48;101660.19;4932011;29;19915;-82
2022/03/14 01:25:43;;;;;;;;;;;;;;;10.17;65.02;101664.66;4916150;29;19923;-82
2022/03/14 01:28:08;;;;;;;;;;;;;;;10.13;64.19;101662.00;4947787;29;19919;-82
2022/03/14 01:30:35;;;;;;;;;;;;;;;10.16;64.35;101676.97;4917650;29;19991;-82
2022/03/14 01:33:01;;;;;;;;;;;;;;;10.13;66.52;101669.94;4918945;29;19919;-82
2022/03/14 01:35:26;;;;;;;;;;;;;;;10.10;65.36;101679.69;4919428;29;19965;-82
2022/03/14 01:37:52;;;;;;;;;;;;;;;10.10;64.92;101688.50;4919095;29;20009;-82
2022/03/14 01:40:22;;;;;;;;;;;;;;;10.08;65.26;101682.31;4936530;29;19911;-86
2022/03/14 01:42:48;;;;;;;;;;;;;;;10.06;64.43;101689.41;4903108;29;19925;-87
2022/03/14 01:45:15;;;;;;;;;;;;;;;10.07;64.88;101685.00;4907113;29;19974;-86
2022/03/14 01:47:41;;;;;;;;;;;;;;;10.05;65.99;101690.28;4899921;29;19955;-86
2022/03/14 01:50:07;;;;;;;;;;;;;;;10.04;65.36;101683.25;4915745;29;20359;-86
2022/03/14 01:52:34;;;;;;;;;;;;;;;10.03;64.28;101684.13;4915278;29;19957;-82
2022/03/14 01:55:00;;;;;;;;;;;;;;;10.02;65.42;101686.78;4914026;29;19915;-82
2022/03/14 01:57:26;;;;;;;;;;;;;;;10.01;65.29;101699.13;4915437;29;19919;-82
2022/03/14 01:59:51;;;;;;;;;;;;;;;10.01;64.55;101698.25;4899471;29;19970;-86
2022/03/14 02:02:19;;;;;;;;;;;;;;;10.00;65.53;101699.16;4884362;29;19919;-87
2022/03/14 02:04:46;;;;;;;;;;;;;;;10.00;63.99;101699.16;4899931;29;20363;-87
2022/03/14 02:07:13;;;;;;;;;;;;;;;10.01;64.81;101700.91;4900055;29;20296;-86
2022/03/14 02:09:38;;;;;;;;;;;;;;;9.97;64.83;101705.34;4915271;29;19915;-86
2022/03/14 02:12:03;;;;;;;;;;;;;;;9.97;64.86;101708.00;4915411;29;19967;-86
2022/03/14 02:14:29;;;;;;;;;;;;;;;9.93;65.59;101708.88;4932021;29;20490;-86
2022/03/14 02:16:55;;;;;;;;;;;;;;;9.92;65.42;101722.13;4903154;29;19973;-83
2022/03/14 02:19:20;;;;;;;;;;;;;;;9.97;65.49;101720.34;4902767;29;20013;-83
2022/03/14 02:21:46;;;;;;;;;;;;;;;9.98;65.80;101717.66;4934268;29;19914;-82
2022/03/14 02:24:14;;;;;;;;;;;;;;;9.96;66.07;101726.50;4903077;29;20387;-82
2022/03/14 02:26:40;;;;;;;;;;;;;;;9.95;65.65;101730.94;4902338;29;19965;-82
2022/03/14 02:29:06;;;;;;;;;;;;;;;9.94;67.33;101729.19;4918116;29;20012;-82
2022/03/14 02:31:31;;;;;;;;;;;;;;;9.95;66.10;101733.56;4918335;29;20378;-82
2022/03/14 02:33:57;;;;;;;;;;;;;;;9.99;65.68;101729.13;4934282;29;19930;-82
2022/03/14 02:36:22;;;;;;;;;;;;;;;9.97;66.77;101723.88;4902428;29;19918;-82
2022/03/14 02:38:47;;;;;;;;;;;;;;;9.98;66.77;101730.03;4902293;29;20092;-82
2022/03/14 02:41:13;;;;;;;;;;;;;;;9.93;66.27;101726.53;4902386;29;19919;-82
2022/03/14 02:43:40;;;;;;;;;;;;;;;9.94;66.41;101731.81;4917899;29;20433;-82
2022/03/14 02:46:06;;;;;;;;;;;;;;;9.95;66.60;101741.50;4883466;29;19989;-82
2022/03/14 02:48:31;;;;;;;;;;;;;;;9.94;67.99;101734.47;4882999;29;19919;-82
2022/03/14 02:50:57;;;;;;;;;;;;;;;9.95;68.04;101730.94;4899828;29;19918;-82
2022/03/14 02:53:22;;;;;;;;;;;;;;;9.95;66.90;101744.16;4917375;29;20021;-82
2022/03/14 02:55:48;;;;;;;;;;;;;;;9.90;66.84;101757.41;4918060;29;19970;-82
2022/03/14 02:58:13;;;;;;;;;;;;;;;9.91;68.55;101747.69;4933134;29;19918;-82
2022/03/14 03:00:39;;;;;;;;;;;;;;;9.87;67.21;101759.19;4934590;29;20638;-82
2022/03/14 03:03:06;;;;;;;;;;;;;;;9.84;67.69;101760.09;4890582;29;19926;-87
2022/03/14 03:05:31;;;;;;;;;;;;;;;9.86;68.54;101762.72;4915650;29;19925;-85
2022/03/14 03:08:03;;;;;;;;;;;;;;;10.02;67.31;101775.00;4914328;29;19974;-88
2022/03/14 03:10:29;;;;;;;;;;;;;;;9.86;67.89;101773.28;4883804;29;19926;-87
2022/03/14 03:12:54;;;;;;;;;;;;;;;9.79;69.13;101779.47;4917935;29;19923;-88
2022/03/14 03:15:20;;;;;;;;;;;;;;;9.78;69.21;101783.03;4901720;29;20366;-86
2022/03/14 03:17:45;;;;;;;;;;;;;;;9.87;68.09;101789.16;4934680;29;19953;-86
2022/03/14 03:20:11;;;;;;;;;;;;;;;9.83;68.58;101790.06;4901830;29;19914;-85
2022/03/14 03:22:38;;;;;;;;;;;;;;;9.63;69.71;101800.69;4917485;29;19937;-86
2022/03/14 03:25:04;;;;;;;;;;;;;;;9.53;69.33;101795.44;4918064;29;20175;-87
2022/03/14 03:27:29;;;;;;;;;;;;;;;9.56;70.37;101806.00;4901411;29;19989;-82
2022/03/14 03:29:55;;;;;;;;;;;;;;;9.52;70.17;101798.97;4901653;29;19961;-82
2022/03/14 03:32:20;;;;;;;;;;;;;;;9.44;70.03;101818.34;4916829;29;19914;-81
2022/03/14 03:34:45;;;;;;;;;;;;;;;9.43;71.22;101818.38;4901118;29;20014;-81
2022/03/14 03:37:11;;;;;;;;;;;;;;;9.38;70.96;101825.44;4901175;29;19942;-82
2022/03/14 03:39:36;;;;;;;;;;;;;;;9.34;71.92;101835.13;4916966;29;20087;-82
2022/03/14 03:42:02;;;;;;;;;;;;;;;9.34;71.02;101837.75;4932120;29;19968;-82
2022/03/14 03:44:29;;;;;;;;;;;;;;;9.42;70.07;101843.03;4894748;29;20320;-82
2022/03/14 03:46:55;;;;;;;;;;;;;;;9.34;71.60;101848.34;4882455;29;19934;-82
2022/03/14 03:49:20;;;;;;;;;;;;;;;9.25;72.59;101857.16;4897714;29;19977;-82
2022/03/14 03:51:45;;;;;;;;;;;;;;;9.19;73.16;101858.91;4882211;29;19919;-82
2022/03/14 03:54:11;;;;;;;;;;;;;;;9.19;72.65;101872.13;4881903;29;20402;-82
2022/03/14 03:56:38;;;;;;;;;;;;;;;9.21;73.81;101871.25;4882188;29;19922;-82
2022/03/14 03:59:03;;;;;;;;;;;;;;;9.17;73.97;101871.25;4882297;29;19922;-82
2022/03/14 04:01:29;;;;;;;;;;;;;;;9.13;73.94;101886.22;4882307;29;19958;-82
2022/03/14 04:03:55;;;;;;;;;;;;;;;9.22;73.52;101886.25;4913439;29;19919;-82
2022/03/14 04:06:25;;;;;;;;;;;;;;;9.15;74.40;101891.50;4883982;29;20647;-82
2022/03/14 04:08:50;;;;;;;;;;;;;;;9.02;76.10;101891.47;4915580;29;19923;-82
2022/03/14 04:11:17;;;;;;;;;;;;;;;8.97;76.49;101909.09;4931423;29;19911;-82
2022/03/14 04:13:42;;;;;;;;;;;;;;;9.03;74.21;101900.31;4913849;29;19933;-82
2022/03/14 04:16:07;;;;;;;;;;;;;;;8.94;75.31;101911.72;4908133;29;19935;-82
2022/03/14 04:18:33;;;;;;;;;;;;;;;8.92;76.16;101917.91;4933454;29;20354;-82
2022/03/14 04:21:00;;;;;;;;;;;;;;;8.88;75.88;101918.75;4899221;29;20331;-81
2022/03/14 04:23:25;;;;;;;;;;;;;;;8.81;75.38;101923.16;4894939;29;20021;-85
2022/03/14 04:25:54;;;;;;;;;;;;;;;8.77;76.57;101921.38;4931780;29;19966;-82
2022/03/14 04:28:19;;;;;;;;;;;;;;;8.80;75.49;101927.56;4915670;29;19966;-82
2022/03/14 04:30:45;;;;;;;;;;;;;;;8.72;77.48;101923.13;4899830;29;20010;-82
2022/03/14 04:33:11;;;;;;;;;;;;;;;8.67;78.21;101925.75;4868700;29;19923;-87
2022/03/14 04:35:36;;;;;;;;;;;;;;;8.71;76.80;101935.47;4927027;29;19996;-86
2022/03/14 04:38:03;;;;;;;;;;;;;;;8.62;77.57;101938.06;4916116;29;19914;-82
2022/03/14 04:40:28;;;;;;;;;;;;;;;8.56;77.91;101938.91;4897556;29;20332;-82
2022/03/14 04:42:54;;;;;;;;;;;;;;;8.53;78.20;101952.13;4884290;29;19926;-82
2022/03/14 04:45:19;;;;;;;;;;;;;;;8.54;77.58;101945.94;4913122;29;19962;-82
2022/03/14 04:47:44;;;;;;;;;;;;;;;8.54;77.45;101950.34;4915425;29;20060;-87
2022/03/14 04:50:10;;;;;;;;;;;;;;;8.45;77.75;101953.81;4932607;28;20009;-87
2022/03/14 04:52:36;;;;;;;;;;;;;;;8.41;78.45;101962.63;4916644;29;19930;-86
2022/03/14 04:55:02;;;;;;;;;;;;;;;8.37;78.66;101964.31;4906168;29;19915;-85
2022/03/14 04:57:28;;;;;;;;;;;;;;;8.35;78.78;101968.69;4919268;29;19918;-86
2022/03/14 04:59:53;;;;;;;;;;;;;;;8.33;79.89;101973.09;4888176;29;19930;-86
2022/03/14 05:02:22;;;;;;;;;;;;;;;8.29;79.40;101973.94;4934319;29;20598;-86
2022/03/14 05:04:48;;;;;;;;;;;;;;;8.34;79.20;101977.50;4911896;29;19942;-86
2022/03/14 05:07:14;;;;;;;;;;;;;;;8.32;79.11;101981.00;4936611;29;20039;-82
2022/03/14 05:09:39;;;;;;;;;;;;;;;8.32;79.90;101981.00;4879829;29;19926;-81
2022/03/14 05:12:05;;;;;;;;;;;;;;;8.26;79.72;101995.06;4921451;29;20347;-82
2022/03/14 05:14:30;;;;;;;;;;;;;;;8.28;79.60;102008.25;4906278;29;20395;-82
2022/03/14 05:16:56;;;;;;;;;;;;;;;8.26;79.46;102004.69;4902196;29;19990;-82
2022/03/14 05:19:21;;;;;;;;;;;;;;;8.27;80.54;102014.41;4874446;29;19965;-82
2022/03/14 05:21:46;;;;;;;;;;;;;;;8.24;79.94;102017.91;4908356;29;19918;-82
2022/03/14 05:24:12;;;;;;;;;;;;;;;8.25;80.02;102018.78;4903324;29;19994;-82
2022/03/14 05:26:37;;;;;;;;;;;;;;;8.24;78.73;102020.53;4887094;29;19993;-82
2022/03/14 05:29:03;;;;;;;;;;;;;;;8.24;80.28;102036.38;4872077;29;19923;-82
2022/03/14 05:31:28;;;;;;;;;;;;;;;8.26;80.02;102031.09;4935880;29;20386;-82
2022/03/14 05:33:54;;;;;;;;;;;;;;;8.27;79.72;102028.47;4887170;29;20351;-83
2022/03/14 05:36:20;;;;;;;;;;;;;;;8.19;81.18;102036.34;4934429;29;19932;-82
2022/03/14 05:38:45;;;;;;;;;;;;;;;8.24;80.78;102043.41;4926753;29;20370;-82
2022/03/14 05:41:11;;;;;;;;;;;;;;;8.24;79.84;102053.97;4889813;29;19911;-82
2022/03/14 05:43:37;;;;;;;;;;;;;;;8.19;80.90;102048.66;4918295;29;19926;-82
2022/03/14 05:46:06;;;;;;;;;;;;;;;8.13;81.58;102061.78;4933162;29;20316;-82
2022/03/14 05:48:34;;;;;;;;;;;;;;;8.12;81.08;102074.09;4918236;29;20393;-82
2022/03/14 05:50:59;;;;;;;;;;;;;;;8.10;79.75;102073.19;4918243;29;19923;-82
2022/03/14 05:53:25;;;;;;;;;;;;;;;8.07;81.10;102080.22;4886829;29;20487;-82
2022/03/14 05:55:50;;;;;;;;;;;;;;;8.09;81.47;102084.66;4923380;29;19915;-82
2022/03/14 05:58:16;;;;;;;;;;;;;;;8.09;81.82;102086.41;4871589;29;19922;-82
2022/03/14 06:00:41;;;;;;;;;;;;;;;8.15;80.81;102083.81;4933731;29;19918;-82
2022/03/14 06:03:06;;;;;;;;;;;;;;;8.14;80.96;102098.75;4910192;29;19923;-82
2022/03/14 06:05:32;;;;;;;;;;;;;;;8.12;81.22;102095.22;4886065;29;19921;-82
2022/03/14 06:07:57;;;;;;;;;;;;;;;8.14;80.45;102103.16;4871098;29;19950;-82
2022/03/14 06:10:24;;;;;;;;;;;;;;;8.14;79.89;102111.06;4917703;29;19918;-82
2022/03/14 06:12:50;;;;;;;;;;;;;;;8.16;80.11;102115.50;4872780;29;19946;-82
2022/03/14 06:15:18;;;;;;;;;;;;;;;8.12;81.22;102118.97;4934976;29;19930;-82
2022/03/14 06:17:44;;;;;;;;;;;;;;;8.14;80.91;102116.34;4901509;29;20000;-82
2022/03/14 06:20:10;;;;;;;;;;;;;;;8.13;81.66;102128.63;4891742;29;20449;-82
2022/03/14 06:22:40;;;;;;;;;;;;;;;8.15;80.41;102126.00;4933050;29;19923;-82
2022/03/14 06:25:05;;;;;;;;;;;;;;;8.17;81.57;102129.56;4933285;29;19925;-82
2022/03/14 06:27:31;;;;;;;;;;;;;;;8.16;80.62;102128.69;4877026;29;19918;-81
2022/03/14 06:29:56;;;;;;;;;;;;;;;8.15;81.83;102136.56;4923003;29;19918;-82
2022/03/14 06:32:24;;;;;;;;;;;;;;;8.14;81.04;102133.06;4937975;29;20363;-81
2022/03/14 06:34:49;;;;;;;;;;;;;;;8.15;81.95;102141.84;4902284;29;19978;-82
2022/03/14 06:37:16;;;;;;;;;;;;;;;8.16;82.54;102148.91;4917708;29;19929;-82
2022/03/14 06:39:41;;;;;;;;;;;;;;;8.20;81.17;102155.97;4917930;29;20000;-82
2022/03/14 06:42:09;;;;;;;;;;;;;;;8.18;82.58;102161.25;4934880;29;19933;-81
2022/03/14 06:44:38;;;;;;;;;;;;;;;8.21;82.03;102164.75;4897883;29;19914;-82
2022/03/14 06:47:08;;;;;;;;;;;;;;;8.18;81.47;102171.81;4933171;29;20313;-82
2022/03/14 06:49:34;;;;;;;;;;;;;;;8.20;82.36;102169.16;4902096;29;20068;-82
2022/03/14 06:51:59;;;;;;;;;;;;;;;8.19;81.48;102167.41;4916735;29;20050;-82
2022/03/14 06:54:24;;;;;;;;;;;;;;;8.21;81.70;102173.59;4873877;29;19931;-82
2022/03/14 06:56:50;;;;;;;;;;;;;;;8.24;81.95;102180.66;4947444;29;19918;-82
2022/03/14 06:59:15;;;;;;;;;;;;;;;8.30;80.18;102180.69;4933507;29;19918;-82
2022/03/14 07:01:41;;;;;;;;;;;;;;;8.32;81.82;102173.66;4886347;29;20017;-82
2022/03/14 07:04:06;;;;;;;;;;;;;;;8.30;81.86;102186.84;4917933;29;20126;-82
2022/03/14 07:06:32;;;;;;;;;;;;;;;8.38;80.23;102174.63;4917683;29;19966;-82
2022/03/14 07:08:57;;;;;;;;;;;;;;;8.36;81.59;102186.03;4902009;29;19927;-82
2022/03/14 07:11:23;;;;;;;;;;;;;;;8.39;80.55;102186.97;4901464;29;20018;-82
2022/03/14 07:13:49;;;;;;;;;;;;;;;8.44;81.32;102194.06;4931301;29;20279;-82
2022/03/14 07:16:14;;;;;;;;;;;;;;;8.49;80.08;102194.97;4916534;29;19985;-82
2022/03/14 07:18:40;;;;;;;;;;;;;;;8.45;80.51;102199.31;4901895;29;19930;-82
2022/03/14 07:21:06;;;;;;;;;;;;;;;8.50;79.50;102207.28;4901622;29;19945;-82
2022/03/14 07:23:31;;;;;;;;;;;;;;;8.48;81.25;102209.03;4934745;29;19954;-82
2022/03/14 07:25:56;;;;;;;;;;;;;;;8.49;81.13;102208.19;4901448;29;19922;-82
2022/03/14 07:28:22;;;;;;;;;;;;;;;8.51;80.40;102212.59;4934193;29;19929;-82
2022/03/14 07:30:47;;;;;;;;;;;;;;;8.53;80.66;102213.50;4934119;29;19945;-82
2022/03/14 07:33:13;;;;;;;;;;;;;;;8.56;80.51;102205.59;4916728;29;19930;-82
2022/03/14 07:35:38;;;;;;;;;;;;;;;8.56;80.66;102217.91;4901561;29;20056;-82
2022/03/14 07:38:04;;;;;;;;;;;;;;;8.58;80.51;102210.88;4916744;29;19918;-82
2022/03/14 07:40:30;;;;;;;;;;;;;;;8.59;80.69;102216.19;4917225;29;19982;-82
2022/03/14 07:42:58;;;;;;;;;;;;;;;8.60;80.31;102219.69;4916918;29;19915;-82
2022/03/14 07:45:30;;;;;;;;;;;;;;;8.63;80.63;102224.13;4903635;29;19915;-82
2022/03/14 07:47:56;;;;;;;;;;;;;;;8.68;80.28;102225.03;4897757;29;19922;-82
2022/03/14 07:50:22;;;;;;;;;;;;;;;8.73;79.89;102223.31;4882795;29;19925;-80
2022/03/14 07:52:47;;;;;;;;;;;;;;;8.74;79.36;102222.47;4901965;29;20005;-80
2022/03/14 07:55:13;;;;;;;;;;;;;;;8.76;79.88;102232.16;4916193;29;19918;-83
2022/03/14 07:57:40;;;;;;;;;;;;;;;8.80;79.43;102238.34;4932310;29;19915;-83
2022/03/14 08:00:10;;;;;;;;;;;;;;;8.73;79.71;102245.34;4916870;29;19959;-83
2022/03/14 08:02:42;;;;;;;;;;;;;;;8.75;79.75;102245.34;4918099;29;19922;-83
2022/03/14 08:05:09;;;;;;;;;;;;;;;8.74;79.56;102244.47;4885674;29;19922;-82
2022/03/14 08:07:35;;;;;;;;;;;;;;;8.78;78.30;102243.63;4914329;29;20363;-82
2022/03/14 08:10:01;;;;;;;;;;;;;;;8.79;79.85;102250.66;4916742;29;20017;-82
2022/03/14 08:12:26;;;;;;;;;;;;;;;8.78;79.77;102253.31;4915327;29;20041;-82
2022/03/14 08:14:51;;;;;;;;;;;;;;;8.80;79.36;102254.19;4900860;29;20370;-83
2022/03/14 08:17:18;;;;;;;;;;;;;;;8.79;79.76;102258.59;4932421;29;19915;-82
2022/03/14 08:19:44;;;;;;;;;;;;;;;8.83;79.77;102264.81;4916978;29;19973;-82
2022/03/14 08:22:10;;;;;;;;;;;;;;;8.86;79.45;102267.47;4916625;29;19945;-83
2022/03/14 08:24:35;;;;;;;;;;;;;;;8.92;78.91;102271.91;4916844;29;19930;-83
2022/03/14 08:27:04;;;;;;;;;;;;;;;8.90;79.44;102277.19;4916557;29;19930;-82
2022/03/14 08:29:29;;;;;;;;;;;;;;;8.89;79.15;102280.69;4920643;29;19923;-83
2022/03/14 08:32:00;;;;;;;;;;;;;;;8.94;78.84;102283.38;4904732;29;20018;-82
2022/03/14 08:34:26;;;;;;;;;;;;;;;8.93;79.22;102292.19;4919793;29;20089;-82
2022/03/14 08:36:51;;;;;;;;;;;;;;;8.93;78.31;102292.19;4937664;29;19982;-82
2022/03/14 08:39:17;;;;;;;;;;;;;;;8.93;78.44;102295.72;4920190;29;19915;-82
2022/03/14 08:41:42;;;;;;;;;;;;;;;8.93;78.49;102300.13;4903955;29;19934;-83
2022/03/14 08:44:08;;;;;;;;;;;;;;;8.91;78.85;102304.50;4900848;29;20005;-83
2022/03/14 08:46:34;;;;;;;;;;;;;;;9.00;78.07;102310.75;4916835;29;20018;-83
2022/03/14 08:49:01;;;;;;;;;;;;;;;9.01;78.31;102315.13;4916794;29;19966;-83
2022/03/14 08:51:27;;;;;;;;;;;;;;;9.07;78.03;102316.06;4901100;29;20395;-83
2022/03/14 08:53:52;;;;;;;;;;;;;;;9.12;78.15;102325.78;4918030;29;19956;-83
2022/03/14 08:56:18;;;;;;;;;;;;;;;9.16;77.74;102324.06;4916900;29;19914;-83
2022/03/14 08:58:44;;;;;;;;;;;;;;;9.17;78.11;102329.38;4916829;29;19999;-83
2022/03/14 09:01:10;;;;;;;;;;;;;;;9.26;77.15;102337.34;4916613;29;19998;-82
2022/03/14 09:03:36;;;;;;;;;;;;;;;9.31;77.33;102339.16;4916730;29;19915;-82
2022/03/14 09:06:01;;;;;;;;;;;;;;;9.35;76.38;102344.47;4916742;29;19914;-83
2022/03/14 09:08:27;;;;;;;;;;;;;;;9.36;76.75;102348.88;4916695;29;19923;-83
2022/03/14 09:10:53;;;;;;;;;;;;;;;9.41;76.19;102354.22;4916659;29;20287;-83
2022/03/14 09:13:20;;;;;;;;;;;;;;;9.43;76.06;102353.34;4924932;29;20297;-83
2022/03/14 09:15:48;;;;;;;;;;;;;;;9.45;76.34;102353.38;4904184;29;19922;-82
2022/03/14 09:18:14;;;;;;;;;;;;;;;9.48;75.64;102350.72;4904111;29;19914;-82
2022/03/14 09:20:40;;;;;;;;;;;;;;;9.50;75.48;102351.63;4904124;29;19945;-83
2022/03/14 09:23:06;;;;;;;;;;;;;;;9.52;75.36;102357.81;4919220;29;20291;-83
2022/03/14 09:25:35;;;;;;;;;;;;;;;9.56;75.18;102371.94;4919549;29;20299;-83
2022/03/14 09:28:00;;;;;;;;;;;;;;;9.61;74.96;102372.84;4919400;29;19915;-82
2022/03/14 09:30:26;;;;;;;;;;;;;;;9.64;74.97;102379.06;4903644;29;19919;-82
2022/03/14 09:32:51;;;;;;;;;;;;;;;9.68;74.75;102382.59;4919048;29;19918;-83
2022/03/14 09:35:18;;;;;;;;;;;;;;;9.67;74.59;102384.38;4903444;29;20244;-82
2022/03/14 09:37:44;;;;;;;;;;;;;;;9.66;74.92;102393.16;4903327;29;20001;-82
2022/03/14 09:40:12;;;;;;;;;;;;;;;9.68;74.83;102394.06;4902656;29;20014;-83
2022/03/14 09:42:41;;;;;;;;;;;;;;;9.71;74.64;102402.91;4935642;29;19958;-83
2022/03/14 09:45:07;;;;;;;;;;;;;;;9.75;74.59;102410.88;4900010;29;19998;-83
2022/03/14 09:47:37;;;;;;;;;;;;;;;9.77;74.84;102419.72;4916176;29;20228;-82
2022/03/14 09:50:04;;;;;;;;;;;;;;;9.83;74.49;102403.84;4915826;29;19962;-83
2022/03/14 09:52:32;;;;;;;;;;;;;;;9.87;73.95;102410.94;4915623;29;20344;-83
2022/03/14 09:54:58;;;;;;;;;;;;;;;9.87;73.87;102416.25;4915661;29;19942;-83
2022/03/14 09:57:25;;;;;;;;;;;;;;;9.93;73.44;102425.97;4915915;29;19967;-83
2022/03/14 09:59:53;;;;;;;;;;;;;;;9.96;73.28;102439.22;4915600;29;19954;-82
2022/03/14 10:02:21;;;;;;;;;;;;;;;9.94;72.97;102437.44;4915277;29;20280;-82
2022/03/14 10:04:47;;;;;;;;;;;;;;;9.93;72.79;102436.56;4915428;29;19967;-82
2022/03/14 10:07:12;;;;;;;;;;;;;;;10.02;72.57;102441.03;4899784;29;19930;-82
2022/03/14 10:09:38;;;;;;;;;;;;;;;10.04;72.50;102437.53;4915295;29;19924;-82
2022/03/14 10:12:04;;;;;;;;;;;;;;;10.11;72.87;102436.69;4914442;29;20347;-82
2022/03/14 10:14:30;;;;;;;;;;;;;;;10.25;72.18;102436.75;4942511;29;20295;-82
2022/03/14 10:16:56;;;;;;;;;;;;;;;10.30;72.17;102429.72;4918801;29;19922;-84
2022/03/14 10:19:29;;;;;;;;;;;;;;;10.46;71.79;102428.06;4903046;29;20359;-82
2022/03/14 10:21:54;;;;;;;;;;;;;;;10.63;71.80;102419.25;4934425;29;19921;-83
2022/03/14 10:24:22;;;;;;;;;;;;;;;10.80;70.42;102438.75;4918381;29;19918;-83
2022/03/14 10:26:47;;;;;;;;;;;;;;;10.91;68.93;102444.09;4902709;29;19925;-83
2022/03/14 10:29:13;;;;;;;;;;;;;;;10.87;70.09;102443.19;4902821;29;19915;-82
2022/03/14 10:31:40;;;;;;;;;;;;;;;10.92;69.14;102437.91;4921841;29;19915;-83
2022/03/14 10:34:16;;;;;;;;;;;;;;;10.95;68.61;102446.75;4930888;29;19923;-83
2022/03/14 10:36:53;;;;;;;;;;;;;;;10.96;68.15;102451.16;4916735;29;19914;-83
2022/03/14 10:39:21;;;;;;;;;;;;;;;10.91;68.07;102460.00;4931306;29;20260;-83
2022/03/14 10:42:07;;;;;;;;;;;;;;;10.86;67.23;102459.09;4930949;29;19958;-83
2022/03/14 10:44:33;;;;;;;;;;;;;;;10.82;67.63;102471.44;4898814;29;20348;-81
2022/03/14 10:46:59;;;;;;;;;;;;;;;10.79;67.65;102466.13;4914675;29;20378;-80
2022/03/14 10:49:28;;;;;;;;;;;;;;;10.88;67.24;102465.25;4916306;29;19965;-81
2022/03/14 10:51:55;;;;;;;;;;;;;;;10.82;67.27;102471.44;4914325;29;20063;-80
2022/03/14 10:54:20;;;;;;;;;;;;;;;10.86;67.53;102464.41;4914664;29;20018;-80
2022/03/14 10:57:02;;;;;;;;;;;;;;;10.90;67.07;102466.16;4915866;29;19927;-80
2022/03/14 10:59:39;;;;;;;;;;;;;;;11.03;66.95;102464.41;4915722;29;19921;-80
2022/03/14 11:02:06;;;;;;;;;;;;;;;11.10;66.19;102476.81;4914002;29;20264;-80
2022/03/14 11:04:51;;;;;;;;;;;;;;;11.10;65.84;102479.47;4914089;29;20420;-80
2022/03/14 11:07:23;;;;;;;;;;;;;;;11.21;65.70;102469.78;4914043;29;20013;-80
2022/03/14 11:09:53;;;;;;;;;;;;;;;11.32;65.63;102478.63;4914231;29;20062;-80
2022/03/14 11:12:20;;;;;;;;;;;;;;;11.38;64.72;102485.72;4914846;29;19988;-80
2022/03/14 11:14:56;;;;;;;;;;;;;;;11.48;64.12;102481.31;4917360;29;19918;-80
2022/03/14 11:17:22;;;;;;;;;;;;;;;11.47;64.44;102493.66;4917203;29;19915;-80
2022/03/14 11:19:48;;;;;;;;;;;;;;;11.46;64.40;102485.72;4901750;29;19922;-80
2022/03/14 11:22:15;;;;;;;;;;;;;;;11.45;64.24;102483.94;4901346;29;19914;-80
2022/03/14 11:24:42;;;;;;;;;;;;;;;11.54;64.24;102495.44;4934755;29;20070;-82
2022/03/14 11:27:09;;;;;;;;;;;;;;;11.49;63.71;102499.84;4916970;29;20331;-82
2022/03/14 11:29:36;;;;;;;;;;;;;;;11.63;62.78;102487.50;4901864;29;19915;-83
2022/03/14 11:32:03;;;;;;;;;;;;;;;11.63;63.08;102492.78;4901545;29;19930;-82
2022/03/14 11:34:29;;;;;;;;;;;;;;;11.85;62.53;102500.75;4901194;29;20242;-82
2022/03/14 11:36:57;;;;;;;;;;;;;;;11.78;61.47;102496.34;4901761;29;19910;-82
2022/03/14 11:39:22;;;;;;;;;;;;;;;11.73;62.12;102503.41;4901359;29;19973;-81
2022/03/14 11:41:48;;;;;;;;;;;;;;;11.75;62.09;102496.34;4901469;29;20343;-82
2022/03/14 11:44:14;;;;;;;;;;;;;;;11.86;61.77;102496.31;4898109;29;19962;-82
2022/03/14 11:46:40;;;;;;;;;;;;;;;11.81;61.64;102494.56;4914007;29;19915;-82
2022/03/14 11:49:15;;;;;;;;;;;;;;;11.83;61.12;102503.41;4913942;29;20013;-82
2022/03/14 11:51:41;;;;;;;;;;;;;;;11.86;60.54;102505.16;4913571;29;19974;-82
2022/03/14 11:54:13;;;;;;;;;;;;;;;11.88;59.80;102507.88;4913492;29;19919;-82
2022/03/14 11:56:51;;;;;;;;;;;;;;;11.90;60.28;102519.38;4914941;29;19995;-82
2022/03/14 11:59:24;;;;;;;;;;;;;;;12.00;60.12;102511.41;4913805;29;20330;-82
2022/03/14 12:01:50;;;;;;;;;;;;;;;12.09;59.31;102522.88;4913172;29;19915;-82
2022/03/14 12:04:26;;;;;;;;;;;;;;;12.08;59.83;102519.34;4913552;29;20382;-82
2022/03/14 12:06:52;;;;;;;;;;;;;;;12.12;59.99;102509.63;4913464;29;19966;-82
2022/03/14 12:09:23;;;;;;;;;;;;;;;12.20;59.60;102515.78;4913471;29;19919;-81
2022/03/14 12:11:49;;;;;;;;;;;;;;;12.32;59.10;102514.91;4913563;29;19915;-82
2022/03/14 12:14:34;;;;;;;;;;;;;;;12.55;59.25;102512.16;4929791;29;19919;-82
2022/03/14 12:17:12;;;;;;;;;;;;;;;12.88;57.92;102520.00;4916604;29;19922;-82
2022/03/14 12:19:44;;;;;;;;;;;;;;;13.00;57.07;102516.38;4916564;29;20057;-83
2022/03/14 12:22:28;;;;;;;;;;;;;;;13.15;57.20;102511.88;4901096;29;20013;-82
2022/03/14 12:24:53;;;;;;;;;;;;;;;13.29;56.55;102510.06;4933818;29;20306;-83
2022/03/14 12:27:26;;;;;;;;;;;;;;;13.35;56.47;102507.34;4933869;29;19919;-82
2022/03/14 12:29:52;;;;;;;;;;;;;;;13.46;55.93;102504.63;4933952;29;19915;-83
2022/03/14 12:32:36;;;;;;;;;;;;;;;13.51;56.88;102519.66;4934044;29;19915;-82
2022/03/14 12:35:09;;;;;;;;;;;;;;;13.44;55.87;102512.59;4933918;29;20310;-83
2022/03/14 12:37:35;;;;;;;;;;;;;;;13.22;56.14;102510.94;4900996;29;20009;-82
2022/03/14 12:40:04;;;;;;;;;;;;;;;13.16;56.61;102503.03;4916689;29;20009;-83